Time;durP1;ratioP1;P1;durP2;ratioP2;P2;SDS_P1;SDS_P2;PMS_P1;PMS_P2;Temp;Humidity;BMP_temperature;BMP_pressure;BME280_temperature;BME280_humidity;BME280_pressure;Samples;Min_cycle;Max_cycle;Signal;HPM_P1;HPM_P2
2024/03/12 00:01:55;;;;;;;5.70;2.23;;;;;;;;;;4907128;29;20446;-85
2024/03/12 00:04:23;;;;;;;2.20;2.00;;;;;;;;;;4916550;29;20255;-85
2024/03/12 00:06:49;;;;;;;1.60;1.43;;;;;;;;;;4919356;28;20228;-86
2024/03/12 00:09:14;;;;;;;2.20;2.00;;;;;;;;;;4917800;28;20246;-83
2024/03/12 00:11:42;;;;;;;2.60;2.20;;;;;;;;;;4914405;29;20235;-86
2024/03/12 00:14:07;;;;;;;1.67;1.50;;;;;;;;;;4933607;28;20215;-85
2024/03/12 00:16:34;;;;;;;1.87;1.20;;;;;;;;;;4935348;29;20767;-86
2024/03/12 00:19:02;;;;;;;1.30;1.20;;;;;;;;;;4915196;29;20776;-86
2024/03/12 00:21:28;;;;;;;2.60;1.40;;;;;;;;;;4936833;28;20231;-86
2024/03/12 00:23:58;;;;;;;1.47;1.37;;;;;;;;;;4915140;29;20372;-86
2024/03/12 00:26:27;;;;;;;1.80;1.70;;;;;;;;;;4932809;28;20222;-85
2024/03/12 00:28:53;;;;;;;1.83;1.73;;;;;;;;;;4916439;28;20223;-85
2024/03/12 00:31:21;;;;;;;1.70;1.60;;;;;;;;;;4934386;28;20229;-86
2024/03/12 00:33:49;;;;;;;2.33;1.70;;;;;;;;;;4921554;29;20215;-85
2024/03/12 00:36:15;;;;;;;2.37;1.80;;;;;;;;;;4952182;28;20227;-85
2024/03/12 00:38:46;;;;;;;1.80;1.70;;;;;;;;;;4899297;29;20220;-84
2024/03/12 00:41:14;;;;;;;1.67;1.57;;;;;;;;;;4945611;28;20231;-84
2024/03/12 00:43:41;;;;;;;1.60;1.50;;;;;;;;;;4917780;29;20224;-85
2024/03/12 00:46:11;;;;;;;2.20;2.00;;;;;;;;;;4941756;28;20228;-84
2024/03/12 00:48:37;;;;;;;1.97;1.57;;;;;;;;;;4919836;29;20252;-85
2024/03/12 00:51:08;;;;;;;2.30;2.10;;;;;;;;;;4910454;29;20371;-84
2024/03/12 00:53:36;;;;;;;2.00;1.80;;;;;;;;;;4938598;28;20217;-85
2024/03/12 00:56:04;;;;;;;1.93;1.80;;;;;;;;;;4945363;28;20342;-85
2024/03/12 00:58:33;;;;;;;1.80;1.63;;;;;;;;;;4929687;28;20290;-84
2024/03/12 01:00:59;;;;;;;1.50;1.40;;;;;;;;;;4903280;29;20805;-85
2024/03/12 01:03:27;;;;;;;1.90;1.80;;;;;;;;;;4918360;28;20251;-84
2024/03/12 01:05:55;;;;;;;2.23;2.07;;;;;;;;;;4926553;28;20235;-84
2024/03/12 01:08:28;;;;;;;1.97;1.67;;;;;;;;;;4918171;28;20657;-85
2024/03/12 01:10:56;;;;;;;2.93;2.37;;;;;;;;;;4932209;28;20762;-86
2024/03/12 01:13:24;;;;;;;2.30;2.10;;;;;;;;;;4953604;28;20239;-86
2024/03/12 01:15:54;;;;;;;2.27;1.83;;;;;;;;;;4950410;28;20247;-85
2024/03/12 01:18:20;;;;;;;2.17;1.97;;;;;;;;;;4934463;28;20225;-83
2024/03/12 01:20:46;;;;;;;2.53;2.00;;;;;;;;;;4928613;29;20322;-84
2024/03/12 01:23:13;;;;;;;1.80;1.70;;;;;;;;;;4897881;29;20678;-85
2024/03/12 01:25:41;;;;;;;2.00;1.90;;;;;;;;;;4929575;29;20270;-86
2024/03/12 01:28:10;;;;;;;2.47;1.97;;;;;;;;;;4947774;28;20224;-86
2024/03/12 01:30:36;;;;;;;1.70;1.60;;;;;;;;;;4951661;28;20247;-85
2024/03/12 01:33:02;;;;;;;3.80;1.90;;;;;;;;;;4914610;29;20223;-84
2024/03/12 01:35:30;;;;;;;1.70;1.60;;;;;;;;;;4931843;28;20283;-86
2024/03/12 01:37:57;;;;;;;2.10;1.90;;;;;;;;;;4920556;29;20372;-86
2024/03/12 01:40:26;;;;;;;2.33;1.80;;;;;;;;;;4935551;28;20219;-85
2024/03/12 01:43:01;;;;;;;2.60;1.90;;;;;;;;;;4921003;29;20278;-86
2024/03/12 01:45:30;;;;;;;2.53;2.00;;;;;;;;;;4947934;28;20619;-86
2024/03/12 01:47:57;;;;;;;2.30;2.10;;;;;;;;;;4932315;29;20728;-85
2024/03/12 01:50:25;;;;;;;2.57;2.00;;;;;;;;;;4932501;28;20238;-85
2024/03/12 01:52:59;;;;;;;2.27;2.03;;;;;;;;;;4921575;29;20236;-86
2024/03/12 01:55:24;;;;;;;2.60;2.40;;;;;;;;;;4925167;28;20247;-86
2024/03/12 01:57:52;;;;;;;2.53;2.00;;;;;;;;;;4921624;28;20215;-86
2024/03/12 02:00:25;;;;;;;2.60;2.40;;;;;;;;;;4935676;28;20224;-84
2024/03/12 02:02:53;;;;;;;2.50;2.30;;;;;;;;;;4918555;29;20232;-86
2024/03/12 02:05:22;;;;;;;2.50;2.30;;;;;;;;;;4919974;29;20228;-86
2024/03/12 02:07:51;;;;;;;3.50;2.53;;;;;;;;;;4944557;28;20315;-84
2024/03/12 02:10:18;;;;;;;2.43;2.20;;;;;;;;;;4929019;28;20234;-85
2024/03/12 02:12:46;;;;;;;3.60;2.30;;;;;;;;;;4929338;29;20256;-86
2024/03/12 02:15:17;;;;;;;2.50;2.30;;;;;;;;;;4945762;28;20226;-85
2024/03/12 02:17:44;;;;;;;2.40;2.20;;;;;;;;;;4941277;28;20246;-86
2024/03/12 02:20:09;;;;;;;2.83;2.17;;;;;;;;;;4927155;28;20760;-86
2024/03/12 02:22:40;;;;;;;2.93;2.13;;;;;;;;;;4945931;28;20232;-86
2024/03/12 02:25:10;;;;;;;2.53;2.17;;;;;;;;;;4901459;29;20243;-86
2024/03/12 02:27:35;;;;;;;2.17;1.97;;;;;;;;;;4922875;29;20306;-85
2024/03/12 02:30:03;;;;;;;2.17;2.07;;;;;;;;;;4935054;28;20231;-85
2024/03/12 02:32:29;;;;;;;2.57;2.20;;;;;;;;;;4937190;28;20585;-85
2024/03/12 02:34:57;;;;;;;2.40;2.20;;;;;;;;;;4939412;28;20238;-85
2024/03/12 02:37:25;;;;;;;3.23;2.40;;;;;;;;;;4929112;28;20274;-83
2024/03/12 02:39:51;;;;;;;2.43;2.23;;;;;;;;;;4897290;29;20227;-85
2024/03/12 02:42:21;;;;;;;2.50;2.30;;;;;;;;;;4928271;28;20242;-85
2024/03/12 02:44:47;;;;;;;2.10;2.00;;;;;;;;;;4918117;29;20237;-83
2024/03/12 02:47:16;;;;;;;4.07;2.63;;;;;;;;;;4956775;28;20216;-86
2024/03/12 02:49:43;;;;;;;2.60;2.40;;;;;;;;;;4909500;29;20250;-85
2024/03/12 02:52:11;;;;;;;2.40;2.20;;;;;;;;;;4917391;29;20227;-86
2024/03/12 02:54:36;;;;;;;2.33;2.03;;;;;;;;;;4911639;29;20578;-86
2024/03/12 02:57:02;;;;;;;2.20;2.00;;;;;;;;;;4945354;29;20227;-84
2024/03/12 02:59:32;;;;;;;2.20;2.00;;;;;;;;;;4935894;29;20228;-85
2024/03/12 03:02:05;;;;;;;2.10;2.00;;;;;;;;;;4932097;29;20735;-85
2024/03/12 03:04:36;;;;;;;2.20;1.80;;;;;;;;;;4939164;29;20235;-86
2024/03/12 03:07:04;;;;;;;3.30;2.20;;;;;;;;;;4953027;28;20975;-85
2024/03/12 03:09:34;;;;;;;2.40;2.20;;;;;;;;;;4941010;28;20223;-84
2024/03/12 03:11:59;;;;;;;2.50;2.30;;;;;;;;;;4951375;28;20231;-86
2024/03/12 03:14:30;;;;;;;2.10;2.00;;;;;;;;;;4952402;28;20227;-83
2024/03/12 03:16:59;;;;;;;2.47;2.27;;;;;;;;;;4926895;29;20231;-85
2024/03/12 03:19:27;;;;;;;2.47;2.27;;;;;;;;;;4935955;28;20601;-85
2024/03/12 03:21:57;;;;;;;3.03;2.30;;;;;;;;;;4934891;29;20614;-84
2024/03/12 03:24:23;;;;;;;2.40;2.20;;;;;;;;;;4934461;29;20231;-86
2024/03/12 03:26:51;;;;;;;2.40;2.20;;;;;;;;;;4946213;28;20220;-86
2024/03/12 03:29:21;;;;;;;2.37;2.17;;;;;;;;;;4914420;29;20306;-85
2024/03/12 03:31:48;;;;;;;2.63;2.43;;;;;;;;;;4948978;29;20325;-86
2024/03/12 03:34:18;;;;;;;3.60;2.33;;;;;;;;;;4931079;28;20235;-86
2024/03/12 03:36:43;;;;;;;4.93;2.63;;;;;;;;;;4946206;28;20227;-87
2024/03/12 03:39:09;;;;;;;2.60;2.30;;;;;;;;;;4922039;28;20243;-86
2024/03/12 03:41:34;;;;;;;2.43;2.23;;;;;;;;;;4931079;29;20639;-85
2024/03/12 03:44:02;;;;;;;2.60;2.27;;;;;;;;;;4951149;29;20258;-85
2024/03/12 03:46:32;;;;;;;2.47;2.27;;;;;;;;;;4924325;28;20228;-86
2024/03/12 03:48:58;;;;;;;2.43;2.23;;;;;;;;;;4933800;29;20223;-84
2024/03/12 03:51:23;;;;;;;2.50;2.30;;;;;;;;;;4899591;28;20228;-86
2024/03/12 03:53:51;;;;;;;2.60;2.40;;;;;;;;;;4934962;29;20223;-85
2024/03/12 03:56:23;;;;;;;3.03;2.23;;;;;;;;;;4927642;28;20219;-85
2024/03/12 04:02:39;;;;;;;2.50;2.30;;;;;;;;;;4932155;28;20744;-86
2024/03/12 04:05:07;;;;;;;2.50;2.30;;;;;;;;;;4917216;29;20243;-84
2024/03/12 04:07:35;;;;;;;2.53;2.27;;;;;;;;;;4919636;29;20224;-84
2024/03/12 04:10:10;;;;;;;2.73;2.40;;;;;;;;;;4925928;29;20238;-83
2024/03/12 04:12:44;;;;;;;3.47;2.50;;;;;;;;;;4928750;28;20238;-85
2024/03/12 04:15:12;;;;;;;2.97;2.67;;;;;;;;;;4929240;28;20230;-85
2024/03/12 04:17:38;;;;;;;4.23;3.30;;;;;;;;;;4927546;29;20215;-83
2024/03/12 04:20:10;;;;;;;3.13;2.77;;;;;;;;;;4935979;28;20269;-86
2024/03/12 04:22:45;;;;;;;3.23;3.00;;;;;;;;;;4940189;28;20238;-85
2024/03/12 04:25:13;;;;;;;3.67;3.07;;;;;;;;;;4937147;28;20238;-84
2024/03/12 04:27:38;;;;;;;4.37;3.30;;;;;;;;;;4940281;28;20230;-84
2024/03/12 04:30:11;;;;;;;3.93;3.37;;;;;;;;;;4943484;28;20701;-85
2024/03/12 04:32:39;;;;;;;3.63;3.33;;;;;;;;;;4942084;29;20967;-85
2024/03/12 04:35:09;;;;;;;3.40;3.10;;;;;;;;;;4918436;28;20308;-84
2024/03/12 04:37:35;;;;;;;3.40;3.10;;;;;;;;;;4943035;28;20223;-85
2024/03/12 04:40:06;;;;;;;4.70;4.30;;;;;;;;;;4935519;29;20257;-83
2024/03/12 04:42:33;;;;;;;4.23;3.37;;;;;;;;;;4937181;28;20711;-85
2024/03/12 04:44:59;;;;;;;3.93;3.37;;;;;;;;;;4911310;29;20242;-85
2024/03/12 04:47:27;;;;;;;3.03;2.80;;;;;;;;;;4907339;28;20239;-85
2024/03/12 04:49:57;;;;;;;4.53;3.23;;;;;;;;;;4915570;29;20309;-85
2024/03/12 04:52:23;;;;;;;3.23;2.67;;;;;;;;;;4927045;28;20310;-86
2024/03/12 04:54:48;;;;;;;3.57;3.03;;;;;;;;;;4935004;29;20219;-85
2024/03/12 04:57:14;;;;;;;3.93;3.20;;;;;;;;;;4918855;29;20291;-87
2024/03/12 04:59:39;;;;;;;3.23;2.97;;;;;;;;;;4934776;28;20224;-84
2024/03/12 05:02:08;;;;;;;3.17;2.87;;;;;;;;;;4911919;29;20591;-85
2024/03/12 05:04:38;;;;;;;3.40;3.10;;;;;;;;;;4916742;29;20233;-86
2024/03/12 05:07:04;;;;;;;3.63;3.10;;;;;;;;;;4916257;28;20665;-85
2024/03/12 05:09:34;;;;;;;3.73;2.90;;;;;;;;;;4938178;28;20618;-85
2024/03/12 05:12:02;;;;;;;3.20;2.90;;;;;;;;;;4935690;28;20364;-85
2024/03/12 05:14:27;;;;;;;3.17;2.90;;;;;;;;;;4934432;28;20224;-85
2024/03/12 05:16:56;;;;;;;3.97;3.53;;;;;;;;;;4935625;29;20220;-84
2024/03/12 05:19:24;;;;;;;4.73;3.67;;;;;;;;;;4934391;28;20251;-84
2024/03/12 05:21:52;;;;;;;3.83;3.53;;;;;;;;;;4933168;29;20355;-85
2024/03/12 05:24:20;;;;;;;4.07;3.77;;;;;;;;;;4930310;28;20287;-86
2024/03/12 05:26:49;;;;;;;7.47;6.67;;;;;;;;;;4880861;29;20227;-85
2024/03/12 05:29:17;;;;;;;5.60;5.10;;;;;;;;;;4931358;28;20279;-85
2024/03/12 05:31:43;;;;;;;5.23;4.73;;;;;;;;;;4929375;29;20228;-83
2024/03/12 05:34:18;;;;;;;5.13;4.63;;;;;;;;;;4923068;28;20216;-83
2024/03/12 05:36:51;;;;;;;5.00;4.40;;;;;;;;;;4935659;29;20240;-85
2024/03/12 05:39:26;;;;;;;5.40;4.90;;;;;;;;;;4933331;28;20255;-84
2024/03/12 05:50:16;;;;;;;4.73;4.00;;;;;;;;;;4937890;28;20223;-85
2024/03/12 05:52:45;;;;;;;4.50;4.00;;;;;;;;;;4917229;29;20228;-85
2024/03/12 05:55:11;;;;;;;4.20;3.80;;;;;;;;;;4942081;28;20227;-83
2024/03/12 05:57:41;;;;;;;4.30;3.80;;;;;;;;;;4918273;29;20235;-84
2024/03/12 06:00:07;;;;;;;4.83;3.93;;;;;;;;;;4930416;28;20215;-85
2024/03/12 06:02:38;;;;;;;4.73;4.13;;;;;;;;;;4928032;29;20318;-84
2024/03/12 06:05:06;;;;;;;3.93;3.63;;;;;;;;;;4897909;28;20312;-84
2024/03/12 06:07:32;;;;;;;4.27;3.87;;;;;;;;;;4919660;28;20234;-84
2024/03/12 06:09:57;;;;;;;5.10;4.60;;;;;;;;;;4917660;29;20231;-85
2024/03/12 06:12:27;;;;;;;4.47;4.07;;;;;;;;;;4893883;28;20237;-85
2024/03/12 06:14:59;;;;;;;4.20;3.90;;;;;;;;;;4949473;28;20219;-85
2024/03/12 06:17:25;;;;;;;4.20;3.80;;;;;;;;;;4920268;28;20291;-85
2024/03/12 06:19:51;;;;;;;3.83;3.43;;;;;;;;;;4904290;29;20219;-86
2024/03/12 06:22:18;;;;;;;4.80;4.03;;;;;;;;;;4939509;28;20336;-84
2024/03/12 06:24:49;;;;;;;4.63;3.90;;;;;;;;;;4910447;29;20292;-84
2024/03/12 06:27:18;;;;;;;5.77;4.50;;;;;;;;;;4944285;28;20308;-84
2024/03/12 06:29:51;;;;;;;4.90;4.10;;;;;;;;;;4939322;29;20223;-85
2024/03/12 06:32:20;;;;;;;4.87;4.40;;;;;;;;;;4941323;28;20288;-84
2024/03/12 06:34:48;;;;;;;4.50;3.90;;;;;;;;;;4935100;29;20224;-84
2024/03/12 06:37:15;;;;;;;4.90;4.33;;;;;;;;;;4939597;28;20314;-84
2024/03/12 06:39:41;;;;;;;5.37;4.40;;;;;;;;;;4971820;28;20235;-85
2024/03/12 06:42:07;;;;;;;5.30;4.53;;;;;;;;;;4936382;28;20223;-84
2024/03/12 06:44:40;;;;;;;5.33;4.07;;;;;;;;;;4934574;28;20735;-84
2024/03/12 06:47:06;;;;;;;4.57;3.90;;;;;;;;;;4912164;29;20277;-85
2024/03/12 06:49:33;;;;;;;5.20;4.20;;;;;;;;;;4924609;28;20243;-85
2024/03/12 06:52:00;;;;;;;4.87;4.43;;;;;;;;;;4954545;28;20227;-85
2024/03/12 06:54:28;;;;;;;5.57;4.73;;;;;;;;;;4950556;28;20273;-86
2024/03/12 06:56:56;;;;;;;5.23;4.63;;;;;;;;;;4951088;29;20226;-85
2024/03/12 06:59:22;;;;;;;7.10;5.50;;;;;;;;;;4931526;28;20223;-85
2024/03/12 07:01:53;;;;;;;5.73;5.10;;;;;;;;;;4916004;29;20226;-85
2024/03/12 07:04:23;;;;;;;5.63;5.00;;;;;;;;;;4964217;28;20226;-86
2024/03/12 07:06:52;;;;;;;7.23;5.03;;;;;;;;;;4923310;28;20682;-86
2024/03/12 07:09:26;;;;;;;5.77;5.17;;;;;;;;;;4930398;28;20237;-86
2024/03/12 07:11:58;;;;;;;5.77;4.53;;;;;;;;;;4954528;28;20218;-85
2024/03/12 07:14:32;;;;;;;6.73;5.50;;;;;;;;;;4945599;28;20230;-86
2024/03/12 07:16:58;;;;;;;5.27;4.77;;;;;;;;;;4945915;29;20294;-85
2024/03/12 07:19:26;;;;;;;5.90;5.20;;;;;;;;;;4913674;28;20243;-86
2024/03/12 07:21:56;;;;;;;6.10;5.30;;;;;;;;;;4930696;29;20309;-85
2024/03/12 07:24:23;;;;;;;6.50;5.73;;;;;;;;;;4919004;29;20671;-85
2024/03/12 07:26:48;;;;;;;6.50;5.77;;;;;;;;;;4936697;29;20231;-86
2024/03/12 07:29:16;;;;;;;6.03;5.50;;;;;;;;;;4931440;28;20599;-85
2024/03/12 07:31:41;;;;;;;6.00;5.47;;;;;;;;;;4912852;29;20239;-85
2024/03/12 07:34:11;;;;;;;6.67;6.00;;;;;;;;;;4928559;28;20212;-85
2024/03/12 07:36:42;;;;;;;6.97;6.20;;;;;;;;;;4930087;29;20255;-86
2024/03/12 07:39:24;;;;;;;6.10;5.50;;;;;;;;;;4913792;29;20216;-86
2024/03/12 07:41:57;;;;;;;6.73;6.03;;;;;;;;;;4915084;29;20219;-86
2024/03/12 07:44:23;;;;;;;6.67;6.00;;;;;;;;;;4899091;28;20245;-85
2024/03/12 07:46:49;;;;;;;7.57;6.47;;;;;;;;;;4912581;29;20216;-85
2024/03/12 07:49:20;;;;;;;6.60;5.97;;;;;;;;;;4914917;29;20275;-85
2024/03/12 07:51:51;;;;;;;6.70;6.03;;;;;;;;;;4942927;29;20281;-85
2024/03/12 07:54:18;;;;;;;7.30;5.93;;;;;;;;;;4933411;28;20219;-85
2024/03/12 07:56:48;;;;;;;7.97;6.37;;;;;;;;;;4937253;29;20320;-86
2024/03/12 07:59:21;;;;;;;6.20;5.67;;;;;;;;;;4917858;28;20496;-86
2024/03/12 08:01:57;;;;;;;7.27;6.30;;;;;;;;;;4919981;29;20266;-86
2024/03/12 08:04:26;;;;;;;7.30;6.30;;;;;;;;;;4946500;28;20234;-85
2024/03/12 08:06:54;;;;;;;7.10;6.40;;;;;;;;;;4924190;28;20311;-85
2024/03/12 08:09:23;;;;;;;7.93;6.87;;;;;;;;;;4914985;28;20212;-85
2024/03/12 08:11:51;;;;;;;7.20;6.50;;;;;;;;;;4946946;28;20325;-85
2024/03/12 08:14:17;;;;;;;7.90;7.10;;;;;;;;;;4922650;28;20219;-85
2024/03/12 08:16:46;;;;;;;7.70;7.00;;;;;;;;;;4919994;29;20611;-85
2024/03/12 08:19:12;;;;;;;7.90;7.10;;;;;;;;;;4951771;28;20290;-84
2024/03/12 08:21:42;;;;;;;8.03;7.33;;;;;;;;;;4930382;29;20865;-84
2024/03/12 08:24:10;;;;;;;8.17;7.37;;;;;;;;;;4932705;28;20289;-85
2024/03/12 08:26:37;;;;;;;8.50;7.50;;;;;;;;;;4897569;29;20322;-86
2024/03/12 08:29:11;;;;;;;8.50;7.70;;;;;;;;;;4917093;28;20229;-85
2024/03/12 08:31:38;;;;;;;9.67;8.63;;;;;;;;;;4932945;29;20279;-86
2024/03/12 08:34:09;;;;;;;15.47;10.60;;;;;;;;;;4934595;28;20680;-86
2024/03/12 08:36:34;;;;;;;18.23;13.90;;;;;;;;;;4945479;28;20229;-86
2024/03/12 08:39:04;;;;;;;15.63;12.80;;;;;;;;;;4929433;29;20226;-85
2024/03/12 08:41:33;;;;;;;16.77;12.40;;;;;;;;;;4909157;29;20313;-85
2024/03/12 08:44:00;;;;;;;10.37;9.20;;;;;;;;;;4931254;29;20246;-86
2024/03/12 08:46:28;;;;;;;9.87;8.87;;;;;;;;;;4921751;29;20215;-85
2024/03/12 08:48:58;;;;;;;9.80;8.80;;;;;;;;;;4913117;29;20238;-86
2024/03/12 08:51:26;;;;;;;10.47;9.33;;;;;;;;;;4897808;28;20230;-86
2024/03/12 08:53:51;;;;;;;10.63;9.40;;;;;;;;;;4918574;28;20232;-86
2024/03/12 08:56:21;;;;;;;11.17;9.63;;;;;;;;;;4922317;28;20222;-84
2024/03/12 08:58:49;;;;;;;10.97;9.87;;;;;;;;;;4931939;28;20241;-85
2024/03/12 09:01:18;;;;;;;10.93;9.60;;;;;;;;;;4916821;28;20235;-85
2024/03/12 09:03:46;;;;;;;11.33;10.23;;;;;;;;;;4948741;28;20720;-86
2024/03/12 09:06:11;;;;;;;11.83;10.73;;;;;;;;;;4945099;28;20292;-84
2024/03/12 09:08:39;;;;;;;12.03;10.00;;;;;;;;;;4918423;29;20259;-85
2024/03/12 09:11:09;;;;;;;12.13;10.77;;;;;;;;;;4912561;29;20228;-85
2024/03/12 09:13:39;;;;;;;11.57;10.33;;;;;;;;;;4932172;28;20238;-86
2024/03/12 09:16:12;;;;;;;11.67;10.57;;;;;;;;;;4918397;29;20215;-86
2024/03/12 09:18:44;;;;;;;12.43;11.20;;;;;;;;;;4907842;29;20620;-87
2024/03/12 09:21:12;;;;;;;13.00;11.70;;;;;;;;;;4929342;28;20223;-86
2024/03/12 09:23:38;;;;;;;13.60;12.13;;;;;;;;;;4913304;29;20227;-87
2024/03/12 09:26:09;;;;;;;13.53;12.13;;;;;;;;;;4929726;28;20216;-86
2024/03/12 09:28:37;;;;;;;14.90;13.27;;;;;;;;;;4912945;29;20232;-86
2024/03/12 09:31:04;;;;;;;13.97;12.57;;;;;;;;;;4941784;28;20303;-85
2024/03/12 09:33:34;;;;;;;14.60;13.03;;;;;;;;;;4925257;29;20223;-87
2024/03/12 09:36:00;;;;;;;14.53;13.03;;;;;;;;;;4931919;29;20302;-85
2024/03/12 09:38:33;;;;;;;14.47;12.97;;;;;;;;;;4937913;28;20273;-87
2024/03/12 09:41:03;;;;;;;14.53;13.00;;;;;;;;;;4926076;29;20219;-85
2024/03/12 09:43:32;;;;;;;15.30;13.70;;;;;;;;;;4882582;29;20231;-87
2024/03/12 09:46:00;;;;;;;15.93;14.30;;;;;;;;;;4932455;28;20371;-86
2024/03/12 09:48:29;;;;;;;18.67;16.67;;;;;;;;;;4932400;28;20242;-85
2024/03/12 09:50:58;;;;;;;17.07;15.27;;;;;;;;;;4934981;28;20212;-86
2024/03/12 09:53:27;;;;;;;18.37;16.37;;;;;;;;;;4918317;28;20875;-85
2024/03/12 09:55:55;;;;;;;17.10;15.40;;;;;;;;;;4925409;29;20224;-85
2024/03/12 09:58:21;;;;;;;19.87;16.77;;;;;;;;;;4933239;28;20590;-86
2024/03/12 10:00:51;;;;;;;20.53;17.50;;;;;;;;;;4927618;29;20234;-85
2024/03/12 10:03:19;;;;;;;19.10;17.10;;;;;;;;;;4922874;29;20235;-86
2024/03/12 10:05:47;;;;;;;21.10;18.50;;;;;;;;;;4919778;28;20232;-86
2024/03/12 10:08:18;;;;;;;20.13;17.97;;;;;;;;;;4920631;29;20239;-84
2024/03/12 10:10:45;;;;;;;19.50;17.40;;;;;;;;;;4934057;29;20228;-85
2024/03/12 10:13:17;;;;;;;20.53;18.23;;;;;;;;;;4909230;28;20219;-84
2024/03/12 10:15:50;;;;;;;23.10;19.37;;;;;;;;;;4928701;28;20306;-85
2024/03/12 10:18:16;;;;;;;21.70;19.37;;;;;;;;;;4960154;28;20281;-85
2024/03/12 10:20:47;;;;;;;21.30;19.00;;;;;;;;;;4912848;29;20215;-85
2024/03/12 10:23:15;;;;;;;22.87;18.90;;;;;;;;;;4912911;28;20223;-84
2024/03/12 10:25:44;;;;;;;22.73;18.97;;;;;;;;;;4916413;29;20234;-85
2024/03/12 10:28:16;;;;;;;21.43;19.23;;;;;;;;;;4942894;28;20238;-86
2024/03/12 10:30:45;;;;;;;22.57;19.87;;;;;;;;;;4930008;29;20306;-86
2024/03/12 10:33:17;;;;;;;24.33;19.87;;;;;;;;;;4926571;29;20302;-84
2024/03/12 10:35:50;;;;;;;21.60;19.30;;;;;;;;;;4946934;28;20236;-87
2024/03/12 10:38:27;;;;;;;21.50;19.20;;;;;;;;;;4902608;29;20228;-86
2024/03/12 10:40:56;;;;;;;24.30;19.77;;;;;;;;;;4929613;28;20716;-85
2024/03/12 10:43:25;;;;;;;21.50;19.17;;;;;;;;;;4913731;28;20215;-87
2024/03/12 10:45:56;;;;;;;22.40;19.87;;;;;;;;;;4936052;29;20311;-85
2024/03/12 10:48:26;;;;;;;24.67;20.50;;;;;;;;;;4927492;28;20222;-86
2024/03/12 10:50:53;;;;;;;23.83;20.53;;;;;;;;;;4936390;28;20242;-86
2024/03/12 10:53:21;;;;;;;24.27;21.23;;;;;;;;;;4914127;28;20215;-87
2024/03/12 10:55:46;;;;;;;25.40;21.57;;;;;;;;;;4913571;29;20228;-86
2024/03/12 10:58:14;;;;;;;25.60;22.00;;;;;;;;;;4913384;28;20262;-87
2024/03/12 11:00:39;;;;;;;26.67;22.13;;;;;;;;;;4905923;29;20231;-86
2024/03/12 11:03:14;;;;;;;25.57;21.97;;;;;;;;;;4931603;29;20223;-87
2024/03/12 11:05:41;;;;;;;24.77;21.27;;;;;;;;;;4910684;29;20260;-86
2024/03/12 11:08:09;;;;;;;24.33;21.27;;;;;;;;;;4922666;28;20301;-85
2024/03/12 11:10:42;;;;;;;24.87;21.27;;;;;;;;;;4932885;28;20329;-85
2024/03/12 11:13:07;;;;;;;24.47;20.50;;;;;;;;;;4906716;28;20223;-85
2024/03/12 11:15:42;;;;;;;22.83;20.30;;;;;;;;;;4931098;29;20243;-84
2024/03/12 11:18:09;;;;;;;23.87;20.27;;;;;;;;;;4926785;29;20223;-86
2024/03/12 11:20:41;;;;;;;23.50;20.73;;;;;;;;;;4906284;29;20241;-84
2024/03/12 11:23:07;;;;;;;23.47;20.97;;;;;;;;;;4914090;28;20224;-84
2024/03/12 11:25:39;;;;;;;24.03;19.93;;;;;;;;;;4931398;28;20303;-85
2024/03/12 11:28:20;;;;;;;24.93;20.50;;;;;;;;;;4930081;28;20216;-84
2024/03/12 11:30:55;;;;;;;25.87;22.10;;;;;;;;;;4947117;29;20310;-85
2024/03/12 11:33:51;;;;;;;23.20;20.73;;;;;;;;;;4967296;28;20309;-86
2024/03/12 11:36:25;;;;;;;26.30;21.57;;;;;;;;;;4965073;28;20251;-86
2024/03/12 11:38:51;;;;;;;25.47;22.77;;;;;;;;;;4949288;28;20235;-85
2024/03/12 11:41:19;;;;;;;26.33;22.93;;;;;;;;;;4935442;29;20247;-86
2024/03/12 11:43:47;;;;;;;26.60;23.23;;;;;;;;;;4918889;29;20227;-86
2024/03/12 11:46:20;;;;;;;27.60;24.03;;;;;;;;;;4934672;28;20224;-86
2024/03/12 11:48:46;;;;;;;32.03;25.13;;;;;;;;;;4948529;28;20236;-86
2024/03/12 11:51:11;;;;;;;29.83;26.30;;;;;;;;;;4926352;28;20247;-86
2024/03/12 11:53:41;;;;;;;32.63;26.93;;;;;;;;;;4926672;28;20238;-86
2024/03/12 11:56:10;;;;;;;29.40;25.23;;;;;;;;;;4910409;28;20331;-85
2024/03/12 11:58:44;;;;;;;29.70;26.47;;;;;;;;;;4949717;28;20226;-84
2024/03/12 12:01:20;;;;;;;28.83;25.57;;;;;;;;;;4953275;28;20314;-86
2024/03/12 12:04:10;;;;;;;29.43;25.37;;;;;;;;;;4927340;29;20939;-85
2024/03/12 12:06:38;;;;;;;32.70;25.27;;;;;;;;;;4928830;29;20251;-85
2024/03/12 12:09:05;;;;;;;30.57;26.73;;;;;;;;;;4925034;28;20223;-85
2024/03/12 12:11:36;;;;;;;32.83;26.70;;;;;;;;;;4941181;29;20263;-84
2024/03/12 12:14:04;;;;;;;33.07;26.93;;;;;;;;;;4904066;29;20288;-86
2024/03/12 12:16:29;;;;;;;34.47;28.17;;;;;;;;;;4911572;29;20236;-86
2024/03/12 12:19:06;;;;;;;32.03;26.13;;;;;;;;;;4945398;28;20290;-85
2024/03/12 12:21:34;;;;;;;30.37;25.07;;;;;;;;;;4941889;28;20223;-86
2024/03/12 12:24:02;;;;;;;31.87;25.77;;;;;;;;;;4930410;28;20246;-86
2024/03/12 12:26:33;;;;;;;28.87;24.57;;;;;;;;;;4928363;28;20212;-86
2024/03/12 12:29:03;;;;;;;29.23;24.60;;;;;;;;;;4934808;28;20593;-85
2024/03/12 12:31:35;;;;;;;30.57;25.10;;;;;;;;;;4927690;28;20721;-87
2024/03/12 12:34:05;;;;;;;30.83;25.23;;;;;;;;;;4913574;29;20688;-86
2024/03/12 12:36:34;;;;;;;30.57;25.20;;;;;;;;;;4966314;28;20227;-87
2024/03/12 12:39:09;;;;;;;30.57;25.53;;;;;;;;;;4910261;29;20263;-85
2024/03/12 12:41:35;;;;;;;31.40;26.33;;;;;;;;;;4931822;28;20370;-86
2024/03/12 12:44:10;;;;;;;28.53;24.10;;;;;;;;;;4928021;29;20223;-86
2024/03/12 12:46:38;;;;;;;30.77;25.00;;;;;;;;;;4916170;29;20241;-86
2024/03/12 12:49:04;;;;;;;28.90;24.47;;;;;;;;;;4914861;29;20294;-86
2024/03/12 12:51:32;;;;;;;30.50;25.37;;;;;;;;;;4918191;29;20246;-86
2024/03/12 12:54:02;;;;;;;30.20;25.00;;;;;;;;;;4916327;29;20692;-87
2024/03/12 12:56:35;;;;;;;31.80;24.97;;;;;;;;;;4926320;28;20234;-86
2024/03/12 12:59:10;;;;;;;29.83;25.13;;;;;;;;;;4927270;29;20300;-85
2024/03/12 13:01:38;;;;;;;32.87;26.73;;;;;;;;;;4934495;28;20227;-85
2024/03/12 13:04:19;;;;;;;31.63;25.80;;;;;;;;;;4924345;28;20243;-86
2024/03/12 13:06:45;;;;;;;32.23;25.33;;;;;;;;;;4912910;29;20239;-83
2024/03/12 13:09:25;;;;;;;30.57;25.20;;;;;;;;;;4920311;28;20224;-86
2024/03/12 13:11:51;;;;;;;34.03;26.63;;;;;;;;;;4927504;29;20235;-85
2024/03/12 13:14:16;;;;;;;35.20;26.70;;;;;;;;;;4949693;28;20226;-85
2024/03/12 13:16:42;;;;;;;32.93;25.37;;;;;;;;;;4952962;28;20234;-85
2024/03/12 13:19:11;;;;;;;32.47;24.80;;;;;;;;;;4930603;28;20222;-85
2024/03/12 13:21:39;;;;;;;34.43;25.87;;;;;;;;;;4900014;29;20307;-77
2024/03/12 13:24:05;;;;;;;32.50;26.60;;;;;;;;;;4914989;28;20224;-78
2024/03/12 13:26:33;;;;;;;33.83;26.90;;;;;;;;;;4947530;28;20223;-78
2024/03/12 13:28:58;;;;;;;36.00;27.13;;;;;;;;;;4941797;28;20386;-78
2024/03/12 13:31:26;;;;;;;35.63;28.13;;;;;;;;;;4940150;28;20614;-78
2024/03/12 13:33:53;;;;;;;35.57;28.60;;;;;;;;;;4923930;29;20218;-78
2024/03/12 13:36:21;;;;;;;33.87;26.83;;;;;;;;;;4937195;28;20226;-77
2024/03/12 13:38:53;;;;;;;37.33;27.63;;;;;;;;;;4938719;28;20278;-78
2024/03/12 13:41:19;;;;;;;33.23;28.47;;;;;;;;;;4921076;28;20243;-78
2024/03/12 13:43:54;;;;;;;38.53;29.00;;;;;;;;;;4913715;29;20224;-76
2024/03/12 13:46:22;;;;;;;35.23;28.47;;;;;;;;;;4951121;28;20216;-78
2024/03/12 13:48:48;;;;;;;37.10;27.63;;;;;;;;;;4933684;29;20227;-78
2024/03/12 13:51:13;;;;;;;33.70;27.17;;;;;;;;;;4922126;28;20660;-78
2024/03/12 13:53:42;;;;;;;35.03;27.97;;;;;;;;;;4953096;28;20298;-78
2024/03/12 13:56:11;;;;;;;36.73;26.83;;;;;;;;;;4917716;28;20229;-79
2024/03/12 13:58:39;;;;;;;35.73;27.03;;;;;;;;;;4943159;28;20231;-78
2024/03/12 14:01:06;;;;;;;34.37;26.10;;;;;;;;;;4935429;28;20229;-77
2024/03/12 14:03:33;;;;;;;32.37;25.07;;;;;;;;;;4956268;28;20231;-78
2024/03/12 14:06:02;;;;;;;35.83;26.20;;;;;;;;;;4905615;29;20308;-78
2024/03/12 14:08:30;;;;;;;37.13;27.00;;;;;;;;;;4887837;29;20980;-77
2024/03/12 14:10:57;;;;;;;36.60;26.93;;;;;;;;;;4938014;28;20290;-77
2024/03/12 14:13:28;;;;;;;35.40;28.10;;;;;;;;;;4875681;29;20228;-77
2024/03/12 14:15:55;;;;;;;37.60;28.27;;;;;;;;;;4931434;28;20234;-78
2024/03/12 14:18:21;;;;;;;38.13;28.20;;;;;;;;;;4934389;28;20229;-78
2024/03/12 14:20:51;;;;;;;38.70;28.77;;;;;;;;;;4907023;29;20219;-86
2024/03/12 14:23:16;;;;;;;39.13;28.60;;;;;;;;;;4900738;29;20224;-86
2024/03/12 14:25:45;;;;;;;35.70;28.00;;;;;;;;;;4909730;29;20281;-84
2024/03/12 14:28:12;;;;;;;39.47;29.87;;;;;;;;;;4932479;28;20989;-87
2024/03/12 14:30:38;;;;;;;39.03;29.77;;;;;;;;;;4924060;29;20256;-86
2024/03/12 14:33:04;;;;;;;42.27;29.77;;;;;;;;;;4945046;28;20227;-87
2024/03/12 14:35:32;;;;;;;39.63;29.70;;;;;;;;;;4917420;29;20231;-87
2024/03/12 14:38:03;;;;;;;39.13;29.50;;;;;;;;;;4960503;28;20539;-86
2024/03/12 14:40:29;;;;;;;39.17;28.30;;;;;;;;;;4950422;28;20242;-87
2024/03/12 14:42:57;;;;;;;39.03;29.33;;;;;;;;;;4921097;28;20232;-87
2024/03/12 14:45:25;;;;;;;37.10;28.50;;;;;;;;;;4933986;28;20319;-85
2024/03/12 14:47:54;;;;;;;37.27;28.40;;;;;;;;;;4900231;29;20319;-84
2024/03/12 14:50:22;;;;;;;38.00;28.47;;;;;;;;;;4945275;28;20223;-86
2024/03/12 14:52:47;;;;;;;36.53;28.23;;;;;;;;;;4935961;29;20602;-87